sensor_id;sensor_type;location;lat;lon;timestamp;P1;durP1;ratioP1;P2;durP2;ratioP2
69523;SDS011;56723;42.694;23.286;2022-12-20T07:12:08;27.47;;;13.27;;
69523;SDS011;56723;42.694;23.286;2022-12-20T07:14:35;20.70;;;12.50;;
69523;SDS011;56723;42.694;23.286;2022-12-20T07:17:03;19.17;;;13.10;;
69523;SDS011;56723;42.694;23.286;2022-12-20T07:19:31;20.80;;;12.20;;
69523;SDS011;56723;42.694;23.286;2022-12-20T07:21:57;18.33;;;11.53;;
69523;SDS011;56723;42.694;23.286;2022-12-20T07:24:24;20.00;;;11.37;;
69523;SDS011;56723;42.694;23.286;2022-12-20T07:26:51;21.83;;;11.20;;
69523;SDS011;56723;42.694;23.286;2022-12-20T07:29:18;20.53;;;10.40;;
69523;SDS011;56723;42.694;23.286;2022-12-20T07:31:45;18.53;;;10.00;;
69523;SDS011;56723;42.694;23.286;2022-12-20T07:34:12;18.97;;;10.90;;
69523;SDS011;56723;42.694;23.286;2022-12-20T07:36:39;20.87;;;11.53;;
69523;SDS011;56723;42.694;23.286;2022-12-20T07:39:06;20.30;;;11.07;;
69523;SDS011;56723;42.694;23.286;2022-12-20T07:41:34;23.57;;;12.27;;
69523;SDS011;56723;42.694;23.286;2022-12-20T07:44:02;17.77;;;9.87;;
69523;SDS011;56723;42.694;23.286;2022-12-20T07:46:29;17.00;;;10.37;;
69523;SDS011;56723;42.694;23.286;2022-12-20T07:48:56;17.10;;;10.60;;
69523;SDS011;56723;42.694;23.286;2022-12-20T07:51:27;18.17;;;9.70;;
69523;SDS011;56723;42.694;23.286;2022-12-20T07:54:13;17.40;;;10.10;;
69523;SDS011;56723;42.694;23.286;2022-12-20T07:56:46;19.37;;;10.60;;
69523;SDS011;56723;42.694;23.286;2022-12-20T07:59:17;17.03;;;9.83;;
69523;SDS011;56723;42.694;23.286;2022-12-20T08:01:48;15.33;;;10.00;;
69523;SDS011;56723;42.694;23.286;2022-12-20T08:04:18;17.33;;;10.13;;
69523;SDS011;56723;42.694;23.286;2022-12-20T08:06:47;18.30;;;10.27;;
69523;SDS011;56723;42.694;23.286;2022-12-20T08:09:18;21.60;;;11.03;;
69523;SDS011;56723;42.694;23.286;2022-12-20T08:11:46;16.83;;;10.67;;
69523;SDS011;56723;42.694;23.286;2022-12-20T08:14:15;20.17;;;10.68;;
69523;SDS011;56723;42.694;23.286;2022-12-20T08:19:11;16.07;;;9.93;;
69523;SDS011;56723;42.694;23.286;2022-12-20T08:21:38;18.87;;;9.70;;
69523;SDS011;56723;42.694;23.286;2022-12-20T08:24:05;16.40;;;10.20;;
69523;SDS011;56723;42.694;23.286;2022-12-20T08:26:39;17.03;;;10.17;;
69523;SDS011;56723;42.694;23.286;2022-12-20T08:29:07;17.87;;;10.23;;
69523;SDS011;56723;42.694;23.286;2022-12-20T08:31:38;18.73;;;9.87;;
69523;SDS011;56723;42.694;23.286;2022-12-20T08:34:12;15.47;;;10.23;;
69523;SDS011;56723;42.694;23.286;2022-12-20T08:36:39;16.10;;;10.13;;
69523;SDS011;56723;42.694;23.286;2022-12-20T08:39:06;17.37;;;9.63;;
69523;SDS011;56723;42.694;23.286;2022-12-20T08:41:33;18.90;;;10.73;;
69523;SDS011;56723;42.694;23.286;2022-12-20T08:44:03;16.63;;;10.07;;
69523;SDS011;56723;42.694;23.286;2022-12-20T08:46:30;19.38;;;10.85;;
69523;SDS011;56723;42.694;23.286;2022-12-20T08:48:58;15.03;;;8.40;;
69523;SDS011;56723;42.694;23.286;2022-12-20T08:51:25;20.23;;;10.30;;
69523;SDS011;56723;42.694;23.286;2022-12-20T08:53:52;14.67;;;9.63;;
69523;SDS011;56723;42.694;23.286;2022-12-20T08:56:19;13.67;;;8.83;;
69523;SDS011;56723;42.694;23.286;2022-12-20T08:58:46;13.83;;;8.87;;
69523;SDS011;56723;42.694;23.286;2022-12-20T09:01:15;17.67;;;9.17;;
69523;SDS011;56723;42.694;23.286;2022-12-20T09:03:43;16.17;;;10.00;;
69523;SDS011;56723;42.694;23.286;2022-12-20T09:06:14;15.90;;;10.85;;
69523;SDS011;56723;42.694;23.286;2022-12-20T09:08:42;17.93;;;10.37;;
69523;SDS011;56723;42.694;23.286;2022-12-20T09:11:12;14.50;;;9.00;;
69523;SDS011;56723;42.694;23.286;2022-12-20T09:13:51;15.90;;;9.23;;
69523;SDS011;56723;42.694;23.286;2022-12-20T09:16:20;14.57;;;9.07;;
69523;SDS011;56723;42.694;23.286;2022-12-20T09:18:50;15.13;;;9.33;;
69523;SDS011;56723;42.694;23.286;2022-12-20T09:21:18;14.32;;;8.85;;
69523;SDS011;56723;42.694;23.286;2022-12-20T09:23:46;14.03;;;8.37;;
69523;SDS011;56723;42.694;23.286;2022-12-20T09:26:16;14.80;;;8.00;;
69523;SDS011;56723;42.694;23.286;2022-12-20T09:28:44;14.83;;;9.37;;
69523;SDS011;56723;42.694;23.286;2022-12-20T09:31:18;14.87;;;8.27;;
69523;SDS011;56723;42.694;23.286;2022-12-20T09:33:48;14.70;;;8.73;;
69523;SDS011;56723;42.694;23.286;2022-12-20T09:36:16;13.37;;;8.97;;
69523;SDS011;56723;42.694;23.286;2022-12-20T09:38:45;13.75;;;8.60;;
69523;SDS011;56723;42.694;23.286;2022-12-20T09:41:28;13.87;;;8.77;;
69523;SDS011;56723;42.694;23.286;2022-12-20T09:44:01;14.90;;;8.43;;
69523;SDS011;56723;42.694;23.286;2022-12-20T09:46:31;16.20;;;8.50;;
69523;SDS011;56723;42.694;23.286;2022-12-20T09:48:58;14.33;;;8.70;;
69523;SDS011;56723;42.694;23.286;2022-12-20T10:00:16;12.63;;;8.50;;
69523;SDS011;56723;42.694;23.286;2022-12-20T10:02:45;13.95;;;9.30;;
69523;SDS011;56723;42.694;23.286;2022-12-20T10:05:34;13.07;;;8.47;;
69523;SDS011;56723;42.694;23.286;2022-12-20T10:16:49;14.73;;;8.73;;
69523;SDS011;56723;42.694;23.286;2022-12-20T10:24:31;12.33;;;8.23;;
69523;SDS011;56723;42.694;23.286;2022-12-20T10:27:10;15.85;;;9.50;;
69523;SDS011;56723;42.694;23.286;2022-12-20T10:29:40;13.20;;;7.67;;
69523;SDS011;56723;42.694;23.286;2022-12-20T10:32:15;13.67;;;8.40;;
69523;SDS011;56723;42.694;23.286;2022-12-20T10:34:49;13.67;;;8.17;;
69523;SDS011;56723;42.694;23.286;2022-12-20T10:37:21;17.77;;;9.50;;
69523;SDS011;56723;42.694;23.286;2022-12-20T10:39:48;17.10;;;8.00;;
69523;SDS011;56723;42.694;23.286;2022-12-20T10:42:36;15.75;;;8.70;;
69523;SDS011;56723;42.694;23.286;2022-12-20T10:47:42;15.07;;;8.77;;
69523;SDS011;56723;42.694;23.286;2022-12-20T10:50:22;15.67;;;8.30;;
69523;SDS011;56723;42.694;23.286;2022-12-20T10:55:36;12.30;;;8.13;;
69523;SDS011;56723;42.694;23.286;2022-12-20T10:58:11;15.37;;;8.93;;
69523;SDS011;56723;42.694;23.286;2022-12-20T11:00:39;11.80;;;7.87;;
69523;SDS011;56723;42.694;23.286;2022-12-20T11:03:11;15.87;;;8.17;;
69523;SDS011;56723;42.694;23.286;2022-12-20T11:05:54;16.30;;;9.73;;
69523;SDS011;56723;42.694;23.286;2022-12-20T11:08:27;14.30;;;8.47;;
69523;SDS011;56723;42.694;23.286;2022-12-20T11:11:12;14.87;;;9.20;;
69523;SDS011;56723;42.694;23.286;2022-12-20T11:13:39;14.07;;;9.13;;
69523;SDS011;56723;42.694;23.286;2022-12-20T11:16:20;16.47;;;9.13;;
69523;SDS011;56723;42.694;23.286;2022-12-20T11:19:06;13.77;;;7.93;;
69523;SDS011;56723;42.694;23.286;2022-12-20T11:21:43;12.40;;;7.57;;
69523;SDS011;56723;42.694;23.286;2022-12-20T11:40:03;15.40;;;8.77;;
69523;SDS011;56723;42.694;23.286;2022-12-20T11:42:54;18.63;;;9.13;;
69523;SDS011;56723;42.694;23.286;2022-12-20T11:51:22;11.60;;;8.10;;
69523;SDS011;56723;42.694;23.286;2022-12-20T11:54:04;13.40;;;8.23;;
69523;SDS011;56723;42.694;23.286;2022-12-20T11:56:35;15.33;;;8.50;;
69523;SDS011;56723;42.694;23.286;2022-12-20T12:01:51;16.63;;;8.67;;
69523;SDS011;56723;42.694;23.286;2022-12-20T12:04:37;14.70;;;8.20;;
69523;SDS011;56723;42.694;23.286;2022-12-20T12:07:20;12.33;;;7.53;;
69523;SDS011;56723;42.694;23.286;2022-12-20T12:10:01;13.97;;;8.07;;
69523;SDS011;56723;42.694;23.286;2022-12-20T12:12:36;13.07;;;8.10;;
69523;SDS011;56723;42.694;23.286;2022-12-20T12:18:22;13.50;;;7.60;;
69523;SDS011;56723;42.694;23.286;2022-12-20T12:26:34;10.93;;;7.50;;
69523;SDS011;56723;42.694;23.286;2022-12-20T12:31:45;15.33;;;6.43;;
69523;SDS011;56723;42.694;23.286;2022-12-20T12:42:33;8.57;;;5.17;;
69523;SDS011;56723;42.694;23.286;2022-12-20T12:45:45;9.13;;;5.50;;
69523;SDS011;56723;42.694;23.286;2022-12-20T12:51:07;8.50;;;6.03;;
69523;SDS011;56723;42.694;23.286;2022-12-20T12:53:48;10.68;;;5.32;;
69523;SDS011;56723;42.694;23.286;2022-12-20T13:01:49;12.80;;;7.72;;
69523;SDS011;56723;42.694;23.286;2022-12-20T13:04:26;10.32;;;6.00;;
69523;SDS011;56723;42.694;23.286;2022-12-20T13:06:57;9.38;;;5.85;;
69523;SDS011;56723;42.694;23.286;2022-12-20T13:11:56;8.85;;;5.47;;
69523;SDS011;56723;42.694;23.286;2022-12-20T13:19:50;11.98;;;6.55;;
69523;SDS011;56723;42.694;23.286;2022-12-20T13:22:20;9.35;;;5.68;;
69523;SDS011;56723;42.694;23.286;2022-12-20T13:24:51;9.88;;;5.82;;
69523;SDS011;56723;42.694;23.286;2022-12-20T13:27:26;16.10;;;11.05;;
69523;SDS011;56723;42.694;23.286;2022-12-20T13:45:46;11.20;;;7.63;;
69523;SDS011;56723;42.694;23.286;2022-12-20T13:51:17;12.67;;;7.30;;
69523;SDS011;56723;42.694;23.286;2022-12-20T13:53:51;13.67;;;7.87;;
69523;SDS011;56723;42.694;23.286;2022-12-20T13:58:58;9.40;;;5.93;;
69523;SDS011;56723;42.694;23.286;2022-12-20T14:01:31;9.83;;;6.07;;
69523;SDS011;56723;42.694;23.286;2022-12-20T14:04:02;15.83;;;8.03;;
69523;SDS011;56723;42.694;23.286;2022-12-20T14:06:32;13.80;;;7.53;;
69523;SDS011;56723;42.694;23.286;2022-12-20T14:09:00;13.90;;;8.27;;
69523;SDS011;56723;42.694;23.286;2022-12-20T14:11:28;13.80;;;8.03;;
69523;SDS011;56723;42.694;23.286;2022-12-20T14:13:56;19.43;;;10.30;;
69523;SDS011;56723;42.694;23.286;2022-12-20T14:16:29;15.77;;;9.70;;
69523;SDS011;56723;42.694;23.286;2022-12-20T14:21:36;17.37;;;8.80;;
69523;SDS011;56723;42.694;23.286;2022-12-20T14:24:09;15.23;;;8.00;;
69523;SDS011;56723;42.694;23.286;2022-12-20T14:26:44;19.27;;;10.53;;
69523;SDS011;56723;42.694;23.286;2022-12-20T14:29:17;15.40;;;9.17;;
69523;SDS011;56723;42.694;23.286;2022-12-20T14:31:47;17.27;;;7.97;;
69523;SDS011;56723;42.694;23.286;2022-12-20T14:34:17;19.27;;;10.43;;
69523;SDS011;56723;42.694;23.286;2022-12-20T14:37:25;18.23;;;9.10;;
69523;SDS011;56723;42.694;23.286;2022-12-20T14:42:31;17.33;;;9.10;;
69523;SDS011;56723;42.694;23.286;2022-12-20T14:47:36;18.60;;;8.37;;
69523;SDS011;56723;42.694;23.286;2022-12-20T14:50:24;16.50;;;8.27;;
69523;SDS011;56723;42.694;23.286;2022-12-20T14:52:54;16.83;;;7.60;;
69523;SDS011;56723;42.694;23.286;2022-12-20T14:55:24;18.40;;;8.67;;
69523;SDS011;56723;42.694;23.286;2022-12-20T15:01:00;17.77;;;6.97;;
69523;SDS011;56723;42.694;23.286;2022-12-20T15:03:29;15.67;;;7.37;;
69523;SDS011;56723;42.694;23.286;2022-12-20T15:05:57;15.33;;;7.10;;
69523;SDS011;56723;42.694;23.286;2022-12-20T15:08:29;10.52;;;6.15;;
69523;SDS011;56723;42.694;23.286;2022-12-20T15:18:45;11.60;;;5.70;;
69523;SDS011;56723;42.694;23.286;2022-12-20T15:21:40;12.47;;;7.07;;
69523;SDS011;56723;42.694;23.286;2022-12-20T15:24:13;17.57;;;7.37;;
69523;SDS011;56723;42.694;23.286;2022-12-20T15:26:43;10.63;;;5.80;;
69523;SDS011;56723;42.694;23.286;2022-12-20T15:29:20;9.43;;;5.67;;
69523;SDS011;56723;42.694;23.286;2022-12-20T15:32:03;11.63;;;5.23;;
69523;SDS011;56723;42.694;23.286;2022-12-20T15:34:35;10.73;;;4.63;;
69523;SDS011;56723;42.694;23.286;2022-12-20T15:37:04;13.20;;;5.40;;
69523;SDS011;56723;42.694;23.286;2022-12-20T15:39:39;10.37;;;5.03;;
69523;SDS011;56723;42.694;23.286;2022-12-20T15:42:09;11.50;;;4.97;;
69523;SDS011;56723;42.694;23.286;2022-12-20T15:44:41;10.50;;;5.83;;
69523;SDS011;56723;42.694;23.286;2022-12-20T15:47:11;11.03;;;6.23;;
69523;SDS011;56723;42.694;23.286;2022-12-20T15:49:39;14.17;;;7.17;;
69523;SDS011;56723;42.694;23.286;2022-12-20T15:52:18;10.60;;;5.60;;
69523;SDS011;56723;42.694;23.286;2022-12-20T15:54:47;9.67;;;5.70;;
69523;SDS011;56723;42.694;23.286;2022-12-20T15:57:14;12.27;;;5.30;;
69523;SDS011;56723;42.694;23.286;2022-12-20T15:59:41;11.57;;;4.93;;
69523;SDS011;56723;42.694;23.286;2022-12-20T16:02:36;8.90;;;4.87;;
69523;SDS011;56723;42.694;23.286;2022-12-20T16:05:04;10.30;;;5.87;;
69523;SDS011;56723;42.694;23.286;2022-12-20T16:07:31;10.87;;;5.30;;
69523;SDS011;56723;42.694;23.286;2022-12-20T16:09:58;10.17;;;5.87;;
69523;SDS011;56723;42.694;23.286;2022-12-20T16:12:26;11.47;;;6.60;;
69523;SDS011;56723;42.694;23.286;2022-12-20T16:14:55;12.63;;;7.27;;
69523;SDS011;56723;42.694;23.286;2022-12-20T16:17:22;11.00;;;6.90;;
69523;SDS011;56723;42.694;23.286;2022-12-20T16:19:49;11.43;;;6.50;;
69523;SDS011;56723;42.694;23.286;2022-12-20T16:22:20;13.40;;;7.07;;
69523;SDS011;56723;42.694;23.286;2022-12-20T16:24:48;12.50;;;6.50;;
69523;SDS011;56723;42.694;23.286;2022-12-20T16:27:16;12.80;;;6.57;;
69523;SDS011;56723;42.694;23.286;2022-12-20T16:29:43;13.53;;;7.13;;
69523;SDS011;56723;42.694;23.286;2022-12-20T16:32:14;15.70;;;9.33;;
69523;SDS011;56723;42.694;23.286;2022-12-20T16:34:43;13.07;;;7.87;;
69523;SDS011;56723;42.694;23.286;2022-12-20T16:37:11;16.23;;;8.27;;
69523;SDS011;56723;42.694;23.286;2022-12-20T16:39:39;27.87;;;12.17;;
69523;SDS011;56723;42.694;23.286;2022-12-20T16:42:17;26.33;;;12.82;;
69523;SDS011;56723;42.694;23.286;2022-12-20T16:44:51;22.13;;;11.30;;
69523;SDS011;56723;42.694;23.286;2022-12-20T16:47:20;26.20;;;14.40;;
69523;SDS011;56723;42.694;23.286;2022-12-20T16:49:47;20.77;;;11.40;;
69523;SDS011;56723;42.694;23.286;2022-12-20T16:52:19;16.07;;;9.30;;
69523;SDS011;56723;42.694;23.286;2022-12-20T16:54:48;13.88;;;7.65;;
69523;SDS011;56723;42.694;23.286;2022-12-20T16:57:17;13.23;;;7.95;;
69523;SDS011;56723;42.694;23.286;2022-12-20T16:59:45;25.27;;;11.33;;
69523;SDS011;56723;42.694;23.286;2022-12-20T17:02:21;35.90;;;13.20;;
69523;SDS011;56723;42.694;23.286;2022-12-20T17:04:54;32.33;;;14.03;;
69523;SDS011;56723;42.694;23.286;2022-12-20T17:07:21;20.47;;;8.47;;
69523;SDS011;56723;42.694;23.286;2022-12-20T17:09:48;10.93;;;5.47;;
69523;SDS011;56723;42.694;23.286;2022-12-20T17:12:16;14.93;;;7.53;;
69523;SDS011;56723;42.694;23.286;2022-12-20T17:17:13;11.93;;;6.17;;
69523;SDS011;56723;42.694;23.286;2022-12-20T17:19:41;10.98;;;6.10;;
69523;SDS011;56723;42.694;23.286;2022-12-20T17:22:09;11.83;;;5.67;;
69523;SDS011;56723;42.694;23.286;2022-12-20T17:24:49;14.60;;;6.83;;
69523;SDS011;56723;42.694;23.286;2022-12-20T17:27:16;16.50;;;8.17;;
69523;SDS011;56723;42.694;23.286;2022-12-20T17:29:44;19.77;;;10.93;;
69523;SDS011;56723;42.694;23.286;2022-12-20T17:32:23;26.47;;;14.53;;
69523;SDS011;56723;42.694;23.286;2022-12-20T17:34:51;25.50;;;13.77;;
69523;SDS011;56723;42.694;23.286;2022-12-20T17:37:18;30.23;;;14.73;;
69523;SDS011;56723;42.694;23.286;2022-12-20T17:39:46;30.77;;;15.10;;
69523;SDS011;56723;42.694;23.286;2022-12-20T17:42:14;28.60;;;15.13;;
69523;SDS011;56723;42.694;23.286;2022-12-20T17:44:42;34.33;;;16.10;;
69523;SDS011;56723;42.694;23.286;2022-12-20T17:47:09;27.40;;;15.03;;
69523;SDS011;56723;42.694;23.286;2022-12-20T17:49:37;26.77;;;13.90;;
69523;SDS011;56723;42.694;23.286;2022-12-20T17:52:04;29.53;;;16.60;;
69523;SDS011;56723;42.694;23.286;2022-12-20T17:54:31;27.33;;;15.47;;
69523;SDS011;56723;42.694;23.286;2022-12-20T17:57:10;34.07;;;17.07;;
69523;SDS011;56723;42.694;23.286;2022-12-20T17:59:38;31.50;;;17.30;;
69523;SDS011;56723;42.694;23.286;2022-12-20T18:02:19;35.13;;;17.90;;
69523;SDS011;56723;42.694;23.286;2022-12-20T18:04:51;46.27;;;25.03;;
69523;SDS011;56723;42.694;23.286;2022-12-20T18:07:18;94.73;;;52.67;;
69523;SDS011;56723;42.694;23.286;2022-12-20T18:09:45;75.17;;;41.70;;
69523;SDS011;56723;42.694;23.286;2022-12-20T18:12:13;101.90;;;54.33;;
69523;SDS011;56723;42.694;23.286;2022-12-20T18:14:40;108.27;;;59.77;;
69523;SDS011;56723;42.694;23.286;2022-12-20T18:17:07;94.23;;;53.27;;
69523;SDS011;56723;42.694;23.286;2022-12-20T18:19:34;137.60;;;75.13;;
69523;SDS011;56723;42.694;23.286;2022-12-20T18:22:01;130.33;;;75.90;;
69523;SDS011;56723;42.694;23.286;2022-12-20T18:24:30;125.57;;;70.83;;
69523;SDS011;56723;42.694;23.286;2022-12-20T18:26:57;161.43;;;92.00;;
69523;SDS011;56723;42.694;23.286;2022-12-20T18:29:23;151.67;;;85.73;;
69523;SDS011;56723;42.694;23.286;2022-12-20T18:31:51;152.50;;;85.23;;
69523;SDS011;56723;42.694;23.286;2022-12-20T18:34:18;139.50;;;69.60;;
69523;SDS011;56723;42.694;23.286;2022-12-20T18:36:46;117.93;;;61.50;;
69523;SDS011;56723;42.694;23.286;2022-12-20T18:39:13;110.57;;;57.17;;
69523;SDS011;56723;42.694;23.286;2022-12-20T18:41:40;100.37;;;53.53;;
69523;SDS011;56723;42.694;23.286;2022-12-20T18:44:08;102.83;;;54.90;;
69523;SDS011;56723;42.694;23.286;2022-12-20T18:49:05;88.27;;;48.43;;
69523;SDS011;56723;42.694;23.286;2022-12-20T18:51:32;91.20;;;50.80;;
69523;SDS011;56723;42.694;23.286;2022-12-20T18:54:05;98.33;;;50.30;;
69523;SDS011;56723;42.694;23.286;2022-12-20T18:56:34;96.07;;;51.78;;
69523;SDS011;56723;42.694;23.286;2022-12-20T18:59:03;93.53;;;49.25;;
69523;SDS011;56723;42.694;23.286;2022-12-20T19:01:38;66.60;;;35.00;;
69523;SDS011;56723;42.694;23.286;2022-12-20T19:04:06;44.40;;;24.23;;
69523;SDS011;56723;42.694;23.286;2022-12-20T19:06:35;58.60;;;29.60;;
69523;SDS011;56723;42.694;23.286;2022-12-20T19:09:06;59.03;;;32.83;;
69523;SDS011;56723;42.694;23.286;2022-12-20T19:11:35;81.87;;;39.87;;
69523;SDS011;56723;42.694;23.286;2022-12-20T19:14:02;80.50;;;41.10;;
69523;SDS011;56723;42.694;23.286;2022-12-20T19:16:29;118.70;;;60.57;;
69523;SDS011;56723;42.694;23.286;2022-12-20T19:19:02;110.65;;;57.13;;
69523;SDS011;56723;42.694;23.286;2022-12-20T19:21:31;110.67;;;57.50;;
69523;SDS011;56723;42.694;23.286;2022-12-20T19:24:00;122.40;;;63.97;;
69523;SDS011;56723;42.694;23.286;2022-12-20T19:26:31;126.43;;;67.60;;
69523;SDS011;56723;42.694;23.286;2022-12-20T19:28:58;131.33;;;67.73;;
69523;SDS011;56723;42.694;23.286;2022-12-20T19:31:29;148.30;;;81.47;;
69523;SDS011;56723;42.694;23.286;2022-12-20T19:33:58;153.73;;;88.65;;
69523;SDS011;56723;42.694;23.286;2022-12-20T19:36:28;132.83;;;71.17;;
69523;SDS011;56723;42.694;23.286;2022-12-20T19:39:06;119.57;;;64.23;;
69523;SDS011;56723;42.694;23.286;2022-12-20T19:41:37;114.33;;;58.47;;
69523;SDS011;56723;42.694;23.286;2022-12-20T19:44:05;105.20;;;54.27;;
69523;SDS011;56723;42.694;23.286;2022-12-20T19:46:32;112.97;;;59.67;;
69523;SDS011;56723;42.694;23.286;2022-12-20T19:49:00;113.40;;;58.37;;
69523;SDS011;56723;42.694;23.286;2022-12-20T19:51:27;110.23;;;57.47;;
69523;SDS011;56723;42.694;23.286;2022-12-20T19:53:55;120.67;;;59.27;;
69523;SDS011;56723;42.694;23.286;2022-12-20T19:56:28;140.23;;;75.03;;
69523;SDS011;56723;42.694;23.286;2022-12-20T19:58:57;133.20;;;66.47;;
69523;SDS011;56723;42.694;23.286;2022-12-20T20:01:24;193.33;;;107.47;;
69523;SDS011;56723;42.694;23.286;2022-12-20T20:03:54;139.23;;;78.60;;
69523;SDS011;56723;42.694;23.286;2022-12-20T20:06:23;144.80;;;74.40;;
69523;SDS011;56723;42.694;23.286;2022-12-20T20:08:50;147.70;;;77.23;;
69523;SDS011;56723;42.694;23.286;2022-12-20T20:11:18;150.40;;;85.07;;
69523;SDS011;56723;42.694;23.286;2022-12-20T20:13:46;159.00;;;85.78;;
69523;SDS011;56723;42.694;23.286;2022-12-20T20:16:13;164.30;;;89.27;;
69523;SDS011;56723;42.694;23.286;2022-12-20T20:18:47;137.17;;;71.33;;
69523;SDS011;56723;42.694;23.286;2022-12-20T20:21:15;143.37;;;68.20;;
69523;SDS011;56723;42.694;23.286;2022-12-20T20:23:47;153.90;;;77.07;;
69523;SDS011;56723;42.694;23.286;2022-12-20T20:26:22;142.23;;;75.27;;
69523;SDS011;56723;42.694;23.286;2022-12-20T20:28:51;154.17;;;79.60;;
69523;SDS011;56723;42.694;23.286;2022-12-20T20:31:18;145.97;;;69.47;;
69523;SDS011;56723;42.694;23.286;2022-12-20T20:33:47;145.57;;;73.87;;
69523;SDS011;56723;42.694;23.286;2022-12-20T20:36:15;125.87;;;64.87;;
69523;SDS011;56723;42.694;23.286;2022-12-20T20:41:11;112.83;;;58.50;;
69523;SDS011;56723;42.694;23.286;2022-12-20T20:43:39;110.07;;;57.87;;
69523;SDS011;56723;42.694;23.286;2022-12-20T20:46:08;95.10;;;50.20;;
69523;SDS011;56723;42.694;23.286;2022-12-20T20:48:37;114.97;;;57.83;;
69523;SDS011;56723;42.694;23.286;2022-12-20T20:51:04;103.50;;;57.60;;
69523;SDS011;56723;42.694;23.286;2022-12-20T20:53:32;97.03;;;50.03;;
69523;SDS011;56723;42.694;23.286;2022-12-20T20:56:03;100.17;;;51.77;;
69523;SDS011;56723;42.694;23.286;2022-12-20T20:58:31;92.17;;;49.17;;
69523;SDS011;56723;42.694;23.286;2022-12-20T21:01:00;86.17;;;47.77;;
69523;SDS011;56723;42.694;23.286;2022-12-20T21:03:28;84.35;;;45.58;;
69523;SDS011;56723;42.694;23.286;2022-12-20T21:05:56;84.90;;;47.80;;
69523;SDS011;56723;42.694;23.286;2022-12-20T21:08:43;88.67;;;44.87;;
69523;SDS011;56723;42.694;23.286;2022-12-20T21:11:11;83.77;;;43.87;;
69523;SDS011;56723;42.694;23.286;2022-12-20T21:13:38;82.00;;;45.10;;
69523;SDS011;56723;42.694;23.286;2022-12-20T21:16:15;80.73;;;44.83;;
69523;SDS011;56723;42.694;23.286;2022-12-20T21:18:51;84.23;;;45.93;;
69523;SDS011;56723;42.694;23.286;2022-12-20T21:21:20;83.73;;;47.27;;
69523;SDS011;56723;42.694;23.286;2022-12-20T21:23:47;87.90;;;46.57;;
69523;SDS011;56723;42.694;23.286;2022-12-20T21:26:16;87.77;;;48.50;;
69523;SDS011;56723;42.694;23.286;2022-12-20T21:28:44;82.25;;;46.53;;
69523;SDS011;56723;42.694;23.286;2022-12-20T21:31:13;87.93;;;48.63;;
69523;SDS011;56723;42.694;23.286;2022-12-20T21:33:42;104.97;;;48.50;;
69523;SDS011;56723;42.694;23.286;2022-12-20T21:36:12;130.50;;;68.40;;
69523;SDS011;56723;42.694;23.286;2022-12-20T21:38:41;116.60;;;60.13;;
69523;SDS011;56723;42.694;23.286;2022-12-20T21:41:12;132.30;;;70.73;;
69523;SDS011;56723;42.694;23.286;2022-12-20T21:43:39;108.77;;;59.40;;
69523;SDS011;56723;42.694;23.286;2022-12-20T21:46:06;116.87;;;64.30;;
69523;SDS011;56723;42.694;23.286;2022-12-20T21:48:37;159.50;;;86.77;;
69523;SDS011;56723;42.694;23.286;2022-12-20T21:51:15;160.70;;;88.28;;
69523;SDS011;56723;42.694;23.286;2022-12-20T21:53:48;142.23;;;77.18;;
69523;SDS011;56723;42.694;23.286;2022-12-20T21:56:20;148.33;;;78.03;;
69523;SDS011;56723;42.694;23.286;2022-12-20T21:58:49;149.57;;;84.40;;
69523;SDS011;56723;42.694;23.286;2022-12-20T22:01:20;151.43;;;84.13;;
69523;SDS011;56723;42.694;23.286;2022-12-20T22:03:49;144.17;;;77.27;;
69523;SDS011;56723;42.694;23.286;2022-12-20T22:06:17;147.32;;;77.13;;
69523;SDS011;56723;42.694;23.286;2022-12-20T22:08:44;193.10;;;103.87;;
69523;SDS011;56723;42.694;23.286;2022-12-20T22:11:15;147.13;;;77.17;;
69523;SDS011;56723;42.694;23.286;2022-12-20T22:13:44;132.70;;;67.53;;
69523;SDS011;56723;42.694;23.286;2022-12-20T22:16:13;127.50;;;59.80;;
69523;SDS011;56723;42.694;23.286;2022-12-20T22:18:47;120.50;;;59.73;;
69523;SDS011;56723;42.694;23.286;2022-12-20T22:21:16;123.20;;;63.95;;
69523;SDS011;56723;42.694;23.286;2022-12-20T22:23:44;142.85;;;69.75;;
69523;SDS011;56723;42.694;23.286;2022-12-20T22:26:12;144.17;;;69.40;;
69523;SDS011;56723;42.694;23.286;2022-12-20T22:28:59;127.32;;;66.68;;
69523;SDS011;56723;42.694;23.286;2022-12-20T22:31:28;128.70;;;64.93;;
69523;SDS011;56723;42.694;23.286;2022-12-20T22:33:56;141.57;;;75.93;;
69523;SDS011;56723;42.694;23.286;2022-12-20T22:36:24;120.67;;;59.37;;
69523;SDS011;56723;42.694;23.286;2022-12-20T22:38:52;102.23;;;54.23;;
69523;SDS011;56723;42.694;23.286;2022-12-20T22:41:22;112.50;;;57.38;;
69523;SDS011;56723;42.694;23.286;2022-12-20T22:43:58;106.00;;;52.63;;
69523;SDS011;56723;42.694;23.286;2022-12-20T22:46:25;103.10;;;52.50;;
69523;SDS011;56723;42.694;23.286;2022-12-20T22:48:55;90.15;;;47.80;;
69523;SDS011;56723;42.694;23.286;2022-12-20T22:51:23;110.70;;;53.13;;
69523;SDS011;56723;42.694;23.286;2022-12-20T22:53:55;94.63;;;45.93;;
69523;SDS011;56723;42.694;23.286;2022-12-20T22:56:22;99.93;;;48.73;;
69523;SDS011;56723;42.694;23.286;2022-12-20T22:58:52;65.32;;;36.53;;
69523;SDS011;56723;42.694;23.286;2022-12-20T23:01:19;70.63;;;39.50;;
69523;SDS011;56723;42.694;23.286;2022-12-20T23:03:46;73.60;;;39.50;;
69523;SDS011;56723;42.694;23.286;2022-12-20T23:06:14;68.07;;;38.90;;
69523;SDS011;56723;42.694;23.286;2022-12-20T23:08:43;75.15;;;38.92;;
69523;SDS011;56723;42.694;23.286;2022-12-20T23:11:16;66.58;;;34.04;;
69523;SDS011;56723;42.694;23.286;2022-12-20T23:14:04;77.82;;;40.95;;
69523;SDS011;56723;42.694;23.286;2022-12-20T23:16:53;75.65;;;41.65;;
69523;SDS011;56723;42.694;23.286;2022-12-20T23:19:20;74.67;;;41.30;;
69523;SDS011;56723;42.694;23.286;2022-12-20T23:21:47;77.50;;;42.07;;
69523;SDS011;56723;42.694;23.286;2022-12-20T23:24:33;79.50;;;40.20;;
69523;SDS011;56723;42.694;23.286;2022-12-20T23:27:00;79.63;;;41.73;;
69523;SDS011;56723;42.694;23.286;2022-12-20T23:29:27;83.40;;;43.23;;
69523;SDS011;56723;42.694;23.286;2022-12-20T23:31:55;71.13;;;38.93;;
69523;SDS011;56723;42.694;23.286;2022-12-20T23:34:22;82.33;;;44.33;;
69523;SDS011;56723;42.694;23.286;2022-12-20T23:36:50;89.10;;;45.80;;
69523;SDS011;56723;42.694;23.286;2022-12-20T23:39:16;108.77;;;56.27;;
69523;SDS011;56723;42.694;23.286;2022-12-20T23:41:43;110.63;;;58.67;;
69523;SDS011;56723;42.694;23.286;2022-12-20T23:44:10;93.03;;;48.00;;
69523;SDS011;56723;42.694;23.286;2022-12-20T23:46:37;90.90;;;46.30;;
69523;SDS011;56723;42.694;23.286;2022-12-20T23:49:04;79.20;;;41.90;;
69523;SDS011;56723;42.694;23.286;2022-12-20T23:51:31;80.27;;;38.43;;
69523;SDS011;56723;42.694;23.286;2022-12-20T23:54:00;72.60;;;40.27;;
69523;SDS011;56723;42.694;23.286;2022-12-20T23:56:26;61.00;;;33.33;;
69523;SDS011;56723;42.694;23.286;2022-12-20T23:58:53;60.87;;;32.53;;
